Airfield :
LOGIN :

Register | Disclaimer

   EN    FR    IT 

 










Legend :    VFR   Marginal VFR   IFR   Intensive IFR   Very Intensive IFR
Visi :
Ceiling :
>= 8 km
>= 3000ft
5 to 8 km
1000 to 3000 ft
1500m to 5 km
500 to 1000 ft
800 to 1500m
200 to 500 ft
< 800m
< 200 ft
Symbols :   Thunderstorms  Fog  Heavy snow  Heavy precipitations  Wind > 20 kt
SIGMETs :     Misc.  Thunderstorms  Icing  Turbulence  Mountain Waves  Volcanic Ashes






- Airport Elevation : 36 ft
- IATA code : LTQ


LFAT - Le Touquet

CURRENT METAR :
  • 241200Z AUTO 23017G28KT 180V270 9999 BKN025 OVC033 11/08 Q1013 TEMPO 23020G40KT

EXPIRED METARs :
  • 241130Z AUTO 24017G27KT 9999 OVC030 11/09 Q1014 TEMPO 23020G40KT BECMG BKN012
  • 241100Z AUTO 24017G29KT 200V270 9999 BKN009 BKN013 OVC031 11/10 Q1014 TEMPO 23020G40KT BECMG BKN012
  • 241030Z AUTO 23014KT 190V260 9999 BKN009/// OVC013/// 11/10 Q1014 TEMPO 23020G40KT BECMG BKN012
  • 241000Z AUTO 22014G25KT 200V260 8000 BKN006 OVC010 11/10 Q1015 TEMPO 23020G40KT BECMG BKN012
  • 240930Z AUTO 23013KT 200V260 8000 OVC005 10/10 Q1015 TEMPO 23020G40KT BECMG BKN012

TAF TAF LFAT
Valid from the 24 at 12:00 until the 24 at 21:00 UTC


241100Z 2412/2421 24015G30KT 9999 BKN020
PROB40
TEMPO 2412/2418 23020G40KT
TEMPO 2415/2420 3000 RA BKN010
ATIS : +33 3 21 06 62 84



MET'MAP, your aeronautical weather chart ! - Copyright ORBIFLY December 2007 - Disclaimer

ORBIFLY MET'MAP TEAM :

Programming & Development : Alexandra Zaïnal
Concept & original design : Baudouin d'Aumeries
Assistance for programming : Marc-Olivier Méhu
Technical & hardware support : Manuel Goepfert

Contact : metmap@orbifly.com




SOURCES & CREDITS :

   NOAA